Time;durP1;ratioP1;P1;durP2;ratioP2;P2;SDS_P1;SDS_P2;PMS_P1;PMS_P2;Temp;Humidity;BMP_temperature;BMP_pressure;BME280_temperature;BME280_humidity;BME280_pressure;Samples;Min_cycle;Max_cycle;Signal;HPM_P1;HPM_P2
2022/02/06 00:01:40;;;;;;;5.38;1.67;;;;;;;;;;5071556;28;20024;-50
2022/02/06 00:04:06;;;;;;;3.67;1.33;;;;;;;;;;5066609;28;20051;-47
2022/02/06 00:06:34;;;;;;;4.30;1.30;;;;;;;;;;5068427;28;20028;-50
2022/02/06 00:09:00;;;;;;;2.55;1.20;;;;;;;;;;5068617;28;20595;-46
2022/02/06 00:11:26;;;;;;;4.30;1.42;;;;;;;;;;5072100;28;20024;-48
2022/02/06 00:13:52;;;;;;;3.35;1.55;;;;;;;;;;5066817;28;20031;-46
2022/02/06 00:16:18;;;;;;;5.13;1.45;;;;;;;;;;5069415;28;20020;-46
2022/02/06 00:18:45;;;;;;;3.15;1.08;;;;;;;;;;5064326;28;20104;-46
2022/02/06 00:21:14;;;;;;;3.60;1.30;;;;;;;;;;5072421;28;20033;-48
2022/02/06 00:23:42;;;;;;;5.57;1.30;;;;;;;;;;5069651;28;20499;-46
2022/02/06 00:26:58;;;;;;;4.65;1.70;;;;;;;;;;5074899;28;20028;-46
2022/02/06 00:29:21;;;;;;;1.52;1.08;;;;;;;;;;5065747;28;20476;-46
2022/02/06 00:31:55;;;;;;;2.88;1.40;;;;;;;;;;5072655;28;20039;-47
2022/02/06 00:40:05;;;;;;;4.03;1.20;;;;;;;;;;5069033;28;20055;-48
2022/02/06 00:42:31;;;;;;;3.00;1.27;;;;;;;;;;5076278;28;20028;-47
2022/02/06 00:44:57;;;;;;;4.45;1.23;;;;;;;;;;5073196;28;20040;-46
2022/02/06 00:47:24;;;;;;;3.53;1.73;;;;;;;;;;5072830;28;20048;-49
2022/02/06 00:49:50;;;;;;;4.18;1.65;;;;;;;;;;5073165;28;20037;-47
2022/02/06 00:52:32;;;;;;;3.20;1.58;;;;;;;;;;5070219;28;20415;-46
2022/02/06 00:54:59;;;;;;;2.28;1.17;;;;;;;;;;5078073;28;20031;-46
2022/02/06 00:57:27;;;;;;;3.00;1.38;;;;;;;;;;5070636;28;20028;-47
2022/02/06 00:59:53;;;;;;;3.95;1.30;;;;;;;;;;5071992;28;20025;-46
2022/02/06 01:02:19;;;;;;;4.13;1.23;;;;;;;;;;5068074;28;20516;-47
2022/02/06 01:04:45;;;;;;;2.05;1.30;;;;;;;;;;5075797;28;20043;-46
2022/02/06 01:07:10;;;;;;;5.32;1.23;;;;;;;;;;5074518;28;20020;-48
2022/02/06 01:09:36;;;;;;;3.47;1.00;;;;;;;;;;5075246;28;20032;-46
2022/02/06 01:12:03;;;;;;;2.78;0.80;;;;;;;;;;5071217;28;20111;-46
2022/02/06 01:14:46;;;;;;;3.85;1.42;;;;;;;;;;5061949;28;20025;-46
2022/02/06 01:19:50;;;;;;;7.10;1.65;;;;;;;;;;5059093;28;20385;-49
2022/02/06 01:22:20;;;;;;;4.07;1.13;;;;;;;;;;5066898;28;20563;-47
2022/02/06 01:25:33;;;;;;;2.00;1.13;;;;;;;;;;5071663;28;20021;-47
2022/02/06 01:27:48;;;;;;;5.22;1.48;;;;;;;;;;5056522;28;20040;-46
2022/02/06 01:30:22;;;;;;;3.05;1.75;;;;;;;;;;5071049;28;20031;-47
2022/02/06 01:33:00;;;;;;;3.13;0.80;;;;;;;;;;5062335;28;20024;-47
2022/02/06 01:35:31;;;;;;;3.00;1.13;;;;;;;;;;5065280;28;20082;-46
2022/02/06 01:40:39;;;;;;;4.30;1.35;;;;;;;;;;5071754;28;20040;-46
2022/02/06 01:43:10;;;;;;;4.18;1.25;;;;;;;;;;5061042;28;20029;-46
2022/02/06 01:57:25;;;;;;;4.10;1.23;;;;;;;;;;5071291;28;20511;-46
2022/02/06 02:08:14;;;;;;;3.58;1.10;;;;;;;;;;5071526;28;20035;-47
2022/02/06 02:26:41;;;;;;;6.88;1.23;;;;;;;;;;5074884;28;20040;-47
2022/02/06 02:29:39;;;;;;;6.53;1.02;;;;;;;;;;5072076;28;20698;-46
2022/02/06 02:43:04;;;;;;;5.85;1.20;;;;;;;;;;5074645;28;20040;-46
2022/02/06 02:48:04;;;;;;;2.75;1.40;;;;;;;;;;5074614;28;20482;-46
2022/02/06 02:50:34;;;;;;;5.88;1.33;;;;;;;;;;5073581;28;20460;-49
2022/02/06 02:53:14;;;;;;;6.47;1.70;;;;;;;;;;5074094;28;20044;-46
2022/02/06 03:00:43;;;;;;;3.75;1.45;;;;;;;;;;5070472;28;20144;-46
2022/02/06 03:03:15;;;;;;;4.70;1.00;;;;;;;;;;5062723;28;20032;-46
2022/02/06 03:05:43;;;;;;;1.42;1.10;;;;;;;;;;5073251;28;20035;-47
2022/02/06 03:08:10;;;;;;;5.50;1.42;;;;;;;;;;5070012;28;20040;-48
2022/02/06 03:10:37;;;;;;;2.95;1.55;;;;;;;;;;5060308;28;20036;-49
2022/02/06 03:13:07;;;;;;;2.17;1.48;;;;;;;;;;5062982;28;20107;-48
2022/02/06 03:15:46;;;;;;;5.20;1.30;;;;;;;;;;5071041;28;20031;-48
2022/02/06 03:18:21;;;;;;;2.58;1.27;;;;;;;;;;5071237;28;20086;-47
2022/02/06 03:20:48;;;;;;;6.13;1.52;;;;;;;;;;5071606;28;20491;-49
2022/02/06 03:23:15;;;;;;;2.38;1.30;;;;;;;;;;5066834;28;20520;-49
2022/02/06 03:25:53;;;;;;;8.02;1.30;;;;;;;;;;5063456;28;20108;-47
2022/02/06 03:28:20;;;;;;;4.93;1.30;;;;;;;;;;5056258;28;20361;-46
2022/02/06 03:30:46;;;;;;;2.90;1.25;;;;;;;;;;5071231;28;20403;-46
2022/02/06 03:33:12;;;;;;;2.22;1.33;;;;;;;;;;5072692;28;20056;-47
2022/02/06 03:35:38;;;;;;;7.22;1.55;;;;;;;;;;5062674;28;20036;-47
2022/02/06 03:38:05;;;;;;;2.22;1.40;;;;;;;;;;5072891;28;20349;-50
2022/02/06 03:40:41;;;;;;;2.22;1.42;;;;;;;;;;5070735;28;20119;-51
2022/02/06 03:43:20;;;;;;;6.40;1.85;;;;;;;;;;5069047;28;20535;-47
2022/02/06 03:45:53;;;;;;;2.90;1.40;;;;;;;;;;5061892;28;20032;-48
2022/02/06 03:48:27;;;;;;;9.00;1.38;;;;;;;;;;5068588;28;20080;-47
2022/02/06 03:50:56;;;;;;;2.95;1.40;;;;;;;;;;5072121;28;20085;-48
2022/02/06 03:53:25;;;;;;;7.65;1.77;;;;;;;;;;5072156;28;20048;-48
2022/02/06 03:55:52;;;;;;;5.28;2.50;;;;;;;;;;5062515;28;20028;-48
2022/02/06 03:58:19;;;;;;;4.60;1.95;;;;;;;;;;5072161;28;20016;-49
2022/02/06 04:00:45;;;;;;;8.07;1.65;;;;;;;;;;5071252;28;20115;-48
2022/02/06 04:03:11;;;;;;;6.53;1.98;;;;;;;;;;5064787;28;20036;-50
2022/02/06 04:05:45;;;;;;;7.00;1.85;;;;;;;;;;5071797;28;20039;-47
2022/02/06 04:08:15;;;;;;;4.88;1.98;;;;;;;;;;5070763;28;20028;-47
2022/02/06 04:10:45;;;;;;;3.15;1.70;;;;;;;;;;5063647;28;20072;-47
2022/02/06 04:13:17;;;;;;;2.42;1.52;;;;;;;;;;5061964;28;20472;-47
2022/02/06 04:15:44;;;;;;;4.13;1.63;;;;;;;;;;5072198;28;20032;-46
2022/02/06 04:18:16;;;;;;;4.78;1.65;;;;;;;;;;5069539;28;20029;-48
2022/02/06 04:20:42;;;;;;;9.38;2.00;;;;;;;;;;5071756;28;20036;-47
2022/02/06 04:23:08;;;;;;;3.78;1.73;;;;;;;;;;5069571;28;20508;-47
2022/02/06 04:25:34;;;;;;;5.20;1.80;;;;;;;;;;5069846;28;20044;-47
2022/02/06 04:28:00;;;;;;;8.10;2.10;;;;;;;;;;5071225;28;20028;-47
2022/02/06 04:30:26;;;;;;;7.10;1.90;;;;;;;;;;5066110;28;20025;-48
2022/02/06 04:32:54;;;;;;;4.20;1.85;;;;;;;;;;5070836;28;20024;-47
2022/02/06 04:35:21;;;;;;;5.80;1.75;;;;;;;;;;5068687;28;20144;-47
2022/02/06 04:40:59;;;;;;;6.68;1.98;;;;;;;;;;5058984;28;20063;-47
2022/02/06 04:49:04;;;;;;;6.97;2.10;;;;;;;;;;5067748;28;20039;-48
2022/02/06 04:54:41;;;;;;;6.85;2.00;;;;;;;;;;5043975;28;20067;-47
2022/02/06 05:14:06;;;;;;;8.40;2.05;;;;;;;;;;5065005;28;20036;-47
2022/02/06 05:16:31;;;;;;;4.75;1.63;;;;;;;;;;5070229;28;20463;-47
2022/02/06 05:24:30;;;;;;;3.45;2.05;;;;;;;;;;5072332;28;20161;-47
2022/02/06 05:27:01;;;;;;;5.90;1.73;;;;;;;;;;5067833;28;20037;-47
2022/02/06 05:32:24;;;;;;;5.22;2.33;;;;;;;;;;5054354;28;20056;-47
2022/02/06 05:34:50;;;;;;;4.40;1.90;;;;;;;;;;5065196;28;20027;-50
2022/02/06 05:37:16;;;;;;;5.82;1.58;;;;;;;;;;5067007;28;20020;-50
2022/02/06 05:39:42;;;;;;;1.98;1.75;;;;;;;;;;5068738;28;20029;-49
2022/02/06 05:42:08;;;;;;;3.50;1.77;;;;;;;;;;5068922;28;20020;-47
2022/02/06 05:44:35;;;;;;;13.18;2.85;;;;;;;;;;5074255;28;20039;-47
2022/02/06 05:47:01;;;;;;;3.78;2.05;;;;;;;;;;5070273;28;20062;-48
2022/02/06 05:49:27;;;;;;;4.65;1.83;;;;;;;;;;5067662;28;20021;-47
2022/02/06 05:51:53;;;;;;;6.88;1.85;;;;;;;;;;5071318;28;20160;-48
2022/02/06 05:54:19;;;;;;;5.13;1.50;;;;;;;;;;5073211;28;20037;-47
2022/02/06 05:56:46;;;;;;;5.18;1.90;;;;;;;;;;5074101;28;20027;-47
2022/02/06 05:59:11;;;;;;;4.07;1.70;;;;;;;;;;5072729;28;20027;-51
2022/02/06 06:01:37;;;;;;;6.15;2.15;;;;;;;;;;5067582;28;20028;-48
2022/02/06 06:04:03;;;;;;;3.00;1.80;;;;;;;;;;5073145;28;20021;-47
2022/02/06 06:06:31;;;;;;;10.98;2.20;;;;;;;;;;5072610;28;20090;-48
2022/02/06 06:08:57;;;;;;;2.13;1.40;;;;;;;;;;5070306;28;20036;-47
2022/02/06 06:11:23;;;;;;;6.47;2.40;;;;;;;;;;5068641;28;20036;-50
2022/02/06 06:13:49;;;;;;;2.53;1.80;;;;;;;;;;5071706;28;20150;-47
2022/02/06 06:16:15;;;;;;;6.40;1.75;;;;;;;;;;5075196;28;20021;-52
2022/02/06 06:18:42;;;;;;;2.78;1.50;;;;;;;;;;5071306;28;20048;-48
2022/02/06 06:21:08;;;;;;;6.45;2.10;;;;;;;;;;5069879;28;20076;-48
2022/02/06 06:23:42;;;;;;;3.15;1.60;;;;;;;;;;5072909;28;20032;-48
2022/02/06 06:26:08;;;;;;;5.70;2.05;;;;;;;;;;5071452;28;20047;-49
2022/02/06 06:28:34;;;;;;;6.18;1.88;;;;;;;;;;5063575;28;20028;-51
2022/02/06 06:31:00;;;;;;;2.45;1.45;;;;;;;;;;5068454;28;20065;-49
2022/02/06 06:33:25;;;;;;;2.50;1.33;;;;;;;;;;5072831;28;20033;-49
2022/02/06 06:35:53;;;;;;;4.97;1.92;;;;;;;;;;5069261;28;20025;-47
2022/02/06 06:38:19;;;;;;;3.17;1.70;;;;;;;;;;5071035;28;20028;-50
2022/02/06 06:40:45;;;;;;;2.10;1.67;;;;;;;;;;5072481;28;20388;-47
2022/02/06 06:43:11;;;;;;;2.55;1.23;;;;;;;;;;5066333;28;20058;-48
2022/02/06 06:45:37;;;;;;;2.85;1.58;;;;;;;;;;5072734;28;20535;-47
2022/02/06 06:48:03;;;;;;;4.15;1.60;;;;;;;;;;5070286;28;20428;-50
2022/02/06 06:50:33;;;;;;;5.85;1.58;;;;;;;;;;5073338;28;20036;-49
2022/02/06 06:53:01;;;;;;;3.05;1.63;;;;;;;;;;5073197;28;20041;-49
2022/02/06 06:55:29;;;;;;;3.90;1.67;;;;;;;;;;5074239;28;20021;-47
2022/02/06 06:58:14;;;;;;;4.78;1.35;;;;;;;;;;5060722;28;20040;-47
2022/02/06 07:00:54;;;;;;;2.63;1.58;;;;;;;;;;5066632;28;20028;-46
2022/02/06 07:03:20;;;;;;;1.85;1.42;;;;;;;;;;5073559;28;20476;-48
2022/02/06 07:05:46;;;;;;;6.32;1.83;;;;;;;;;;5067496;28;20085;-47
2022/02/06 07:08:15;;;;;;;6.32;1.70;;;;;;;;;;5072035;28;20104;-49
2022/02/06 07:10:41;;;;;;;3.78;1.80;;;;;;;;;;5070213;28;20107;-47
2022/02/06 07:13:07;;;;;;;2.67;1.40;;;;;;;;;;5070304;28;20029;-47
2022/02/06 07:15:33;;;;;;;2.28;1.63;;;;;;;;;;5069800;28;20025;-46
2022/02/06 07:17:59;;;;;;;1.85;1.20;;;;;;;;;;5060070;28;20020;-47
2022/02/06 07:20:25;;;;;;;3.25;1.58;;;;;;;;;;5072325;28;20339;-50
2022/02/06 07:22:51;;;;;;;2.80;1.45;;;;;;;;;;5069605;28;20476;-47
2022/02/06 07:25:17;;;;;;;4.25;1.60;;;;;;;;;;5068458;28;20036;-48
2022/02/06 07:27:48;;;;;;;3.67;1.80;;;;;;;;;;5065142;28;20368;-47
2022/02/06 07:30:15;;;;;;;5.47;1.38;;;;;;;;;;5063289;28;20066;-47
2022/02/06 07:32:41;;;;;;;7.82;1.70;;;;;;;;;;5061962;28;20021;-47
2022/02/06 07:35:09;;;;;;;2.70;1.75;;;;;;;;;;5067879;28;20021;-49
2022/02/06 07:37:42;;;;;;;3.55;1.35;;;;;;;;;;5067176;28;20036;-49
2022/02/06 07:40:08;;;;;;;3.58;1.00;;;;;;;;;;5065556;28;20477;-48
2022/02/06 07:42:34;;;;;;;1.88;1.25;;;;;;;;;;5064078;28;20036;-48
2022/02/06 07:45:00;;;;;;;2.70;1.17;;;;;;;;;;5066409;28;20028;-47
2022/02/06 07:47:26;;;;;;;4.60;1.25;;;;;;;;;;5065765;28;20035;-49
2022/02/06 07:49:53;;;;;;;2.72;1.30;;;;;;;;;;5069593;28;20472;-47
2022/02/06 07:52:20;;;;;;;2.97;1.17;;;;;;;;;;5071532;28;20396;-48
2022/02/06 07:54:47;;;;;;;4.07;1.20;;;;;;;;;;5066631;28;20059;-51
2022/02/06 07:57:13;;;;;;;1.67;0.95;;;;;;;;;;5065228;28;20033;-47
2022/02/06 07:59:39;;;;;;;1.52;1.00;;;;;;;;;;5067223;28;20476;-47
2022/02/06 08:02:06;;;;;;;2.65;0.93;;;;;;;;;;5072060;28;20032;-47
2022/02/06 08:04:33;;;;;;;2.55;1.30;;;;;;;;;;5069824;28;20025;-47
2022/02/06 08:06:59;;;;;;;2.45;0.90;;;;;;;;;;5069202;28;20036;-47
2022/02/06 08:10:12;;;;;;;3.58;0.93;;;;;;;;;;5066450;28;20028;-48
2022/02/06 08:12:12;;;;;;;3.55;1.08;;;;;;;;;;5053808;28;20040;-49
2022/02/06 08:14:52;;;;;;;3.53;1.00;;;;;;;;;;5063770;28;20030;-47
2022/02/06 08:17:25;;;;;;;3.88;1.38;;;;;;;;;;5068102;28;20446;-47
2022/02/06 08:19:51;;;;;;;1.42;0.88;;;;;;;;;;5066622;28;20029;-47
2022/02/06 08:22:17;;;;;;;2.10;0.80;;;;;;;;;;5058302;28;20045;-49
2022/02/06 08:24:43;;;;;;;2.78;1.00;;;;;;;;;;5069794;28;20039;-47
2022/02/06 08:27:09;;;;;;;2.50;0.70;;;;;;;;;;5068608;28;20056;-47
2022/02/06 08:29:39;;;;;;;5.13;0.93;;;;;;;;;;5073374;28;21458;-47
2022/02/06 08:32:06;;;;;;;1.02;0.70;;;;;;;;;;5068654;28;20431;-47
2022/02/06 08:34:32;;;;;;;1.35;0.80;;;;;;;;;;5072308;28;20419;-47
2022/02/06 08:36:59;;;;;;;5.00;0.95;;;;;;;;;;5070122;28;20162;-49
2022/02/06 08:39:26;;;;;;;1.77;0.80;;;;;;;;;;5064758;28;20028;-50
2022/02/06 08:41:52;;;;;;;0.80;0.60;;;;;;;;;;5059586;28;20373;-50
2022/02/06 08:44:18;;;;;;;0.80;0.80;;;;;;;;;;5064492;28;20039;-49
2022/02/06 08:46:43;;;;;;;1.92;0.80;;;;;;;;;;5067658;28;20031;-48
2022/02/06 08:49:09;;;;;;;3.13;0.95;;;;;;;;;;5071805;28;20029;-49
2022/02/06 08:51:35;;;;;;;2.70;0.90;;;;;;;;;;5060849;28;20021;-48
2022/02/06 08:54:01;;;;;;;1.15;0.70;;;;;;;;;;5069753;28;20039;-47
2022/02/06 08:56:28;;;;;;;1.30;1.17;;;;;;;;;;5068248;28;20029;-47
2022/02/06 08:58:55;;;;;;;2.42;1.00;;;;;;;;;;5072132;28;20028;-49
2022/02/06 09:01:20;;;;;;;1.60;0.70;;;;;;;;;;5063620;28;20353;-48
2022/02/06 09:03:48;;;;;;;5.28;1.10;;;;;;;;;;5069352;28;20107;-48
2022/02/06 09:06:14;;;;;;;2.03;0.70;;;;;;;;;;5067538;28;20654;-47
2022/02/06 09:08:41;;;;;;;1.58;0.77;;;;;;;;;;5069949;28;20056;-48
2022/02/06 09:11:07;;;;;;;1.75;0.75;;;;;;;;;;5063170;28;20112;-49
2022/02/06 09:13:33;;;;;;;1.38;1.00;;;;;;;;;;5063796;28;20025;-47
2022/02/06 09:15:59;;;;;;;0.73;0.60;;;;;;;;;;5064637;28;20040;-47
2022/02/06 09:18:25;;;;;;;5.68;0.90;;;;;;;;;;5070792;28;20040;-49
2022/02/06 09:20:51;;;;;;;1.73;1.00;;;;;;;;;;5065011;28;20055;-49
2022/02/06 09:23:17;;;;;;;4.68;1.02;;;;;;;;;;5067462;28;20473;-50
2022/02/06 09:25:43;;;;;;;3.95;0.90;;;;;;;;;;5059410;28;20421;-48
2022/02/06 09:28:09;;;;;;;1.73;0.73;;;;;;;;;;5057638;28;20032;-49
2022/02/06 09:30:35;;;;;;;2.15;0.85;;;;;;;;;;5071670;28;20025;-52
2022/02/06 09:35:27;;;;;;;2.13;1.08;;;;;;;;;;5067754;28;20074;-49
2022/02/06 09:37:53;;;;;;;3.67;0.90;;;;;;;;;;5064531;28;20033;-51
2022/02/06 09:40:20;;;;;;;1.27;0.77;;;;;;;;;;5064720;28;20452;-48
2022/02/06 09:42:52;;;;;;;2.42;0.73;;;;;;;;;;5070581;28;20032;-47
2022/02/06 09:45:18;;;;;;;3.15;0.80;;;;;;;;;;5070754;28;20040;-47
2022/02/06 09:47:49;;;;;;;0.98;0.90;;;;;;;;;;5063905;28;20039;-48
2022/02/06 09:50:15;;;;;;;0.70;0.68;;;;;;;;;;5068257;28;20024;-47
2022/02/06 09:52:42;;;;;;;3.17;0.70;;;;;;;;;;5064255;28;20538;-49
2022/02/06 09:55:13;;;;;;;1.83;0.73;;;;;;;;;;5069125;28;20020;-49
2022/02/06 09:57:52;;;;;;;4.50;0.90;;;;;;;;;;5064021;28;20056;-49
2022/02/06 10:00:20;;;;;;;0.82;0.57;;;;;;;;;;5062670;28;20021;-48
2022/02/06 10:02:47;;;;;;;1.27;0.68;;;;;;;;;;5058317;28;20029;-47
2022/02/06 10:05:17;;;;;;;1.83;0.80;;;;;;;;;;5068183;28;20497;-47
2022/02/06 10:07:45;;;;;;;2.33;0.93;;;;;;;;;;5060111;28;20033;-47
2022/02/06 10:10:12;;;;;;;1.20;0.80;;;;;;;;;;5059854;28;20552;-49
2022/02/06 10:12:39;;;;;;;0.80;0.63;;;;;;;;;;5063753;28;20104;-51
2022/02/06 10:15:07;;;;;;;2.17;0.80;;;;;;;;;;5068869;28;20362;-49
2022/02/06 10:17:35;;;;;;;3.10;0.60;;;;;;;;;;5063091;28;20021;-47
2022/02/06 10:20:01;;;;;;;1.00;0.70;;;;;;;;;;5071421;28;20469;-48
2022/02/06 10:22:37;;;;;;;2.88;0.68;;;;;;;;;;5066630;28;20027;-49
2022/02/06 10:25:05;;;;;;;0.90;0.50;;;;;;;;;;5059223;28;20136;-50
2022/02/06 10:27:53;;;;;;;1.17;0.60;;;;;;;;;;5057637;28;20032;-52
2022/02/06 10:30:36;;;;;;;2.90;0.70;;;;;;;;;;5067518;28;20098;-50
2022/02/06 10:33:02;;;;;;;0.93;0.68;;;;;;;;;;5054006;28;20029;-51
2022/02/06 10:35:34;;;;;;;2.58;0.60;;;;;;;;;;5071846;28;20025;-51
2022/02/06 10:38:02;;;;;;;1.10;0.73;;;;;;;;;;5071320;28;20032;-48
2022/02/06 10:40:28;;;;;;;0.80;0.70;;;;;;;;;;5061864;28;20055;-47
2022/02/06 10:42:54;;;;;;;0.80;0.52;;;;;;;;;;5062907;28;20039;-47
2022/02/06 10:45:22;;;;;;;1.27;0.50;;;;;;;;;;5063227;28;20036;-49
2022/02/06 10:47:50;;;;;;;0.82;0.60;;;;;;;;;;5070593;28;20044;-48
2022/02/06 10:50:17;;;;;;;2.28;1.70;;;;;;;;;;5061866;28;20025;-50
2022/02/06 10:52:44;;;;;;;2.15;0.70;;;;;;;;;;5066904;28;20045;-49
2022/02/06 10:55:10;;;;;;;1.67;0.68;;;;;;;;;;5072273;28;21367;-50
2022/02/06 10:57:37;;;;;;;2.25;0.60;;;;;;;;;;5066474;28;20419;-50
2022/02/06 11:00:05;;;;;;;1.30;0.60;;;;;;;;;;5073147;28;20383;-50
2022/02/06 11:02:34;;;;;;;0.85;0.60;;;;;;;;;;5066088;28;20033;-49
2022/02/06 11:07:39;;;;;;;1.38;0.55;;;;;;;;;;5072892;28;20078;-47
2022/02/06 11:10:06;;;;;;;0.68;0.55;;;;;;;;;;5068800;28;20032;-47
2022/02/06 11:12:33;;;;;;;1.55;0.50;;;;;;;;;;5072643;28;20059;-47
2022/02/06 11:15:02;;;;;;;2.72;0.93;;;;;;;;;;5082791;28;20020;-47
2022/02/06 11:17:30;;;;;;;1.42;0.63;;;;;;;;;;5063447;28;20024;-48
2022/02/06 11:20:17;;;;;;;1.90;0.80;;;;;;;;;;5073769;28;20024;-47
2022/02/06 11:22:53;;;;;;;2.47;0.68;;;;;;;;;;5073738;28;20024;-48
2022/02/06 11:25:19;;;;;;;0.75;0.60;;;;;;;;;;5072671;28;20103;-48
2022/02/06 11:27:45;;;;;;;0.75;0.60;;;;;;;;;;5073966;28;20085;-48
2022/02/06 11:30:12;;;;;;;1.38;0.63;;;;;;;;;;5071776;28;20448;-48
2022/02/06 11:32:40;;;;;;;3.50;0.70;;;;;;;;;;5073590;28;20025;-46
2022/02/06 11:35:12;;;;;;;2.97;0.75;;;;;;;;;;5071168;28;20025;-46
2022/02/06 11:46:20;;;;;;;2.35;0.60;;;;;;;;;;5067435;28;20046;-51
2022/02/06 11:48:47;;;;;;;0.82;0.50;;;;;;;;;;5069746;28;20038;-47
2022/02/06 11:51:17;;;;;;;2.33;0.60;;;;;;;;;;5066797;28;20043;-49
2022/02/06 11:53:43;;;;;;;1.60;0.52;;;;;;;;;;5075940;28;20044;-48
2022/02/06 11:56:23;;;;;;;1.67;0.70;;;;;;;;;;5068802;28;20361;-47
2022/02/06 11:58:50;;;;;;;2.30;0.50;;;;;;;;;;5074673;28;20020;-47
2022/02/06 12:01:16;;;;;;;0.82;0.52;;;;;;;;;;5067919;28;20063;-50
2022/02/06 12:03:54;;;;;;;1.05;0.70;;;;;;;;;;5072236;28;20023;-49
2022/02/06 12:06:24;;;;;;;1.30;0.70;;;;;;;;;;5065176;28;20389;-50
2022/02/06 12:08:59;;;;;;;1.20;0.63;;;;;;;;;;5072377;28;20103;-50
2022/02/06 12:11:26;;;;;;;1.80;0.88;;;;;;;;;;5065258;28;20558;-46
2022/02/06 12:14:23;;;;;;;2.83;1.10;;;;;;;;;;5075128;28;20020;-47
2022/02/06 12:18:05;;;;;;;0.82;0.70;;;;;;;;;;5070827;28;20040;-46
2022/02/06 12:20:01;;;;;;;1.40;0.55;;;;;;;;;;5063206;28;20039;-46
2022/02/06 12:22:27;;;;;;;0.63;0.60;;;;;;;;;;5066874;28;20021;-47
2022/02/06 12:24:53;;;;;;;0.80;0.40;;;;;;;;;;5070755;28;20112;-47
2022/02/06 12:27:24;;;;;;;1.25;0.68;;;;;;;;;;5077549;28;20031;-50
2022/02/06 12:29:52;;;;;;;0.98;0.47;;;;;;;;;;5074612;28;20077;-47
2022/02/06 12:32:32;;;;;;;0.65;0.57;;;;;;;;;;5083240;28;20123;-47
2022/02/06 12:37:44;;;;;;;0.65;0.50;;;;;;;;;;5073055;28;20077;-47
2022/02/06 12:40:14;;;;;;;1.48;0.80;;;;;;;;;;5073993;28;20028;-48
2022/02/06 12:42:41;;;;;;;1.58;0.90;;;;;;;;;;5068975;28;20020;-47
2022/02/06 12:45:26;;;;;;;0.90;0.57;;;;;;;;;;5074592;28;20016;-50
2022/02/06 12:47:54;;;;;;;1.00;0.60;;;;;;;;;;5071166;28;20100;-52
2022/02/06 12:50:24;;;;;;;0.85;0.50;;;;;;;;;;5066576;28;20024;-47
2022/02/06 12:52:51;;;;;;;0.77;0.50;;;;;;;;;;5065600;28;20087;-46
2022/02/06 12:55:17;;;;;;;0.82;0.50;;;;;;;;;;5072332;28;20027;-50
2022/02/06 12:57:44;;;;;;;0.93;0.50;;;;;;;;;;5065788;28;20016;-47
2022/02/06 13:00:24;;;;;;;0.57;0.50;;;;;;;;;;5071092;28;20021;-48
2022/02/06 13:02:50;;;;;;;0.88;0.50;;;;;;;;;;5058839;28;20013;-51
2022/02/06 13:05:15;;;;;;;0.73;0.50;;;;;;;;;;5071661;28;20369;-47
2022/02/06 13:07:42;;;;;;;0.77;0.40;;;;;;;;;;5057717;28;20021;-47
2022/02/06 13:10:09;;;;;;;0.43;0.32;;;;;;;;;;5059678;28;20029;-47
2022/02/06 13:12:38;;;;;;;0.63;0.50;;;;;;;;;;5059056;28;20032;-49
2022/02/06 13:18:02;;;;;;;0.35;0.30;;;;;;;;;;5066524;28;20039;-47
2022/02/06 13:20:38;;;;;;;1.30;0.60;;;;;;;;;;5070503;28;20050;-47
2022/02/06 13:25:52;;;;;;;0.40;0.38;;;;;;;;;;5059240;28;20051;-47
2022/02/06 13:36:33;;;;;;;1.67;0.25;;;;;;;;;;5069043;28;20368;-47
2022/02/06 13:39:05;;;;;;;0.50;0.30;;;;;;;;;;5071592;28;20048;-47
2022/02/06 13:41:32;;;;;;;0.60;0.40;;;;;;;;;;5065630;28;20067;-47
2022/02/06 13:43:59;;;;;;;0.35;0.30;;;;;;;;;;5070786;28;20051;-47
2022/02/06 13:46:28;;;;;;;0.57;0.57;;;;;;;;;;5064676;28;20035;-47
2022/02/06 13:48:55;;;;;;;1.67;0.40;;;;;;;;;;5071514;28;20104;-47
2022/02/06 13:51:30;;;;;;;0.43;0.43;;;;;;;;;;5064881;28;20028;-47
2022/02/06 13:53:57;;;;;;;2.95;0.47;;;;;;;;;;5073516;28;20028;-48
2022/02/06 13:56:23;;;;;;;1.20;0.55;;;;;;;;;;5074961;28;20029;-49
2022/02/06 13:59:08;;;;;;;0.95;0.50;;;;;;;;;;5062420;28;20027;-49
2022/02/06 14:01:46;;;;;;;0.63;0.47;;;;;;;;;;5070051;28;20032;-47
2022/02/06 14:04:20;;;;;;;0.85;0.50;;;;;;;;;;5074396;28;20060;-47
2022/02/06 14:06:59;;;;;;;0.60;0.40;;;;;;;;;;5070501;28;20032;-49
2022/02/06 14:09:29;;;;;;;1.13;0.45;;;;;;;;;;5074796;28;20032;-47
2022/02/06 14:12:01;;;;;;;0.43;0.40;;;;;;;;;;5066828;28;20029;-49
2022/02/06 14:14:28;;;;;;;1.85;0.50;;;;;;;;;;5079767;28;20032;-48
2022/02/06 14:16:55;;;;;;;0.77;0.47;;;;;;;;;;5071900;28;20489;-47
2022/02/06 14:19:42;;;;;;;0.68;0.40;;;;;;;;;;5073875;28;20033;-50
2022/02/06 14:22:08;;;;;;;1.55;0.50;;;;;;;;;;5068688;28;20029;-47
2022/02/06 14:24:53;;;;;;;0.60;0.55;;;;;;;;;;5070077;28;20074;-49
2022/02/06 14:27:37;;;;;;;0.68;0.40;;;;;;;;;;5064134;28;20395;-49
2022/02/06 14:30:09;;;;;;;1.40;1.02;;;;;;;;;;5062952;28;20028;-47
2022/02/06 14:32:36;;;;;;;0.52;0.43;;;;;;;;;;5067741;28;20086;-47
2022/02/06 14:35:07;;;;;;;0.50;0.40;;;;;;;;;;5065405;28;20013;-46
2022/02/06 14:38:04;;;;;;;1.85;0.50;;;;;;;;;;5071990;28;20024;-47
2022/02/06 14:41:04;;;;;;;0.50;0.40;;;;;;;;;;5061173;28;20439;-48
2022/02/06 14:43:39;;;;;;;0.50;0.40;;;;;;;;;;5064181;28;20036;-48
2022/02/06 14:46:06;;;;;;;0.82;0.60;;;;;;;;;;5062248;28;20025;-47
2022/02/06 14:48:32;;;;;;;0.80;0.57;;;;;;;;;;5069352;28;20469;-49
2022/02/06 14:50:58;;;;;;;0.98;0.60;;;;;;;;;;5064653;28;20044;-48
2022/02/06 14:53:25;;;;;;;0.65;0.50;;;;;;;;;;5061525;28;20045;-47
2022/02/06 14:55:52;;;;;;;0.57;0.40;;;;;;;;;;5067578;28;20020;-48
2022/02/06 14:58:19;;;;;;;1.05;0.50;;;;;;;;;;5073805;28;20044;-47
2022/02/06 15:00:45;;;;;;;1.63;0.55;;;;;;;;;;5070042;28;20051;-47
2022/02/06 15:03:11;;;;;;;4.38;0.50;;;;;;;;;;5062875;28;20085;-48
2022/02/06 15:05:38;;;;;;;0.30;0.30;;;;;;;;;;5069570;28;20039;-47
2022/02/06 15:08:05;;;;;;;0.40;0.40;;;;;;;;;;5068609;28;20036;-47
2022/02/06 15:10:31;;;;;;;0.40;0.40;;;;;;;;;;5065503;28;20035;-47
2022/02/06 15:12:58;;;;;;;0.45;0.45;;;;;;;;;;5087881;28;20056;-48
2022/02/06 15:15:31;;;;;;;0.32;0.32;;;;;;;;;;5071486;28;20103;-47
2022/02/06 15:18:01;;;;;;;0.82;0.45;;;;;;;;;;5078038;28;20468;-48
2022/02/06 15:20:27;;;;;;;2.15;0.45;;;;;;;;;;5064366;28;20120;-50
2022/02/06 15:22:53;;;;;;;1.27;0.55;;;;;;;;;;5063459;28;20041;-47
2022/02/06 15:25:19;;;;;;;0.65;0.60;;;;;;;;;;5070137;28;20046;-48
2022/02/06 15:27:45;;;;;;;0.65;0.50;;;;;;;;;;5073840;28;20037;-47
2022/02/06 15:30:11;;;;;;;0.47;0.47;;;;;;;;;;5072206;28;20031;-48
2022/02/06 15:32:37;;;;;;;0.68;0.60;;;;;;;;;;5068575;28;20745;-48
2022/02/06 15:35:04;;;;;;;0.40;0.40;;;;;;;;;;5078348;28;20024;-47
2022/02/06 15:37:31;;;;;;;0.80;0.50;;;;;;;;;;5068495;28;20044;-47
2022/02/06 15:39:59;;;;;;;7.00;0.70;;;;;;;;;;5069468;28;20069;-47
2022/02/06 15:42:25;;;;;;;0.38;0.38;;;;;;;;;;5075063;28;20333;-47
2022/02/06 15:44:51;;;;;;;1.38;0.32;;;;;;;;;;5071921;28;20393;-47
2022/02/06 15:47:17;;;;;;;0.50;0.40;;;;;;;;;;5076797;28;20032;-48
2022/02/06 15:49:43;;;;;;;0.40;0.40;;;;;;;;;;5070151;28;20024;-48
2022/02/06 15:52:10;;;;;;;0.47;0.35;;;;;;;;;;5078129;28;20044;-47
2022/02/06 15:54:36;;;;;;;0.32;0.32;;;;;;;;;;5066425;28;20025;-47
2022/02/06 15:57:03;;;;;;;0.65;0.40;;;;;;;;;;5065398;28;20028;-47
2022/02/06 15:59:29;;;;;;;3.42;0.50;;;;;;;;;;5070149;28;20463;-47
2022/02/06 16:01:55;;;;;;;0.50;0.40;;;;;;;;;;5059160;28;20033;-47
2022/02/06 16:04:21;;;;;;;0.43;0.40;;;;;;;;;;5066992;28;20048;-47
2022/02/06 16:06:52;;;;;;;0.47;0.47;;;;;;;;;;5062497;28;20373;-47
2022/02/06 16:09:25;;;;;;;1.48;0.50;;;;;;;;;;5075587;28;20111;-48
2022/02/06 16:11:51;;;;;;;0.43;0.43;;;;;;;;;;5063472;28;20040;-47
2022/02/06 16:14:17;;;;;;;0.80;0.50;;;;;;;;;;5067342;28;20027;-48
2022/02/06 16:16:43;;;;;;;0.82;0.40;;;;;;;;;;5070852;28;20472;-47
2022/02/06 16:19:09;;;;;;;0.65;0.50;;;;;;;;;;5064848;28;20025;-47
2022/02/06 16:21:35;;;;;;;0.60;0.60;;;;;;;;;;5070741;28;20054;-47
2022/02/06 16:24:01;;;;;;;0.38;0.38;;;;;;;;;;5069887;28;20037;-48
2022/02/06 16:26:27;;;;;;;0.40;0.40;;;;;;;;;;5068584;28;20056;-48
2022/02/06 16:28:55;;;;;;;2.80;0.43;;;;;;;;;;5061434;28;20029;-48
2022/02/06 16:31:21;;;;;;;1.30;0.50;;;;;;;;;;5062699;28;20033;-50
2022/02/06 16:33:48;;;;;;;3.05;0.60;;;;;;;;;;5067639;28;20507;-51
2022/02/06 16:36:14;;;;;;;1.35;0.60;;;;;;;;;;5064717;28;20028;-47
2022/02/06 16:38:41;;;;;;;0.40;0.40;;;;;;;;;;5068573;28;20078;-49
2022/02/06 16:41:07;;;;;;;1.17;0.60;;;;;;;;;;5065638;28;20037;-47
2022/02/06 16:43:33;;;;;;;0.40;0.40;;;;;;;;;;5066471;28;20392;-49
2022/02/06 16:45:59;;;;;;;0.55;0.45;;;;;;;;;;5057512;28;20032;-47
2022/02/06 16:48:26;;;;;;;0.40;0.40;;;;;;;;;;5067511;28;20459;-47
2022/02/06 16:50:52;;;;;;;0.35;0.35;;;;;;;;;;5057207;28;20044;-48
2022/02/06 16:53:19;;;;;;;0.70;0.40;;;;;;;;;;5064500;28;20052;-47
2022/02/06 16:55:45;;;;;;;0.50;0.50;;;;;;;;;;5068969;28;20079;-50
2022/02/06 16:58:11;;;;;;;0.80;0.60;;;;;;;;;;5072045;28;20024;-47
2022/02/06 17:00:37;;;;;;;0.63;0.60;;;;;;;;;;5070104;28;20024;-48
2022/02/06 17:03:03;;;;;;;0.90;0.60;;;;;;;;;;5061359;28;20111;-48
2022/02/06 17:05:29;;;;;;;0.50;0.50;;;;;;;;;;5070436;28;20039;-47
2022/02/06 17:07:56;;;;;;;0.70;0.60;;;;;;;;;;5068689;28;20025;-51